Time;durP1;ratioP1;P1;durP2;ratioP2;P2;SDS_P1;SDS_P2;PMS_P1;PMS_P2;Temp;Humidity;BMP_temperature;BMP_pressure;BME280_temperature;BME280_humidity;BME280_pressure;Samples;Min_cycle;Max_cycle;Signal;HPM_P1;HPM_P2
2022/08/27 00:01:30;;;;;;;;;;;26.60;96.20;;;;;;5104033;28;19983;-54
2022/08/27 00:03:56;;;;;;;;;;;26.60;96.20;;;;;;5103916;28;19908;-57
2022/08/27 00:06:23;;;;;;;;;;;26.60;96.20;;;;;;5104014;28;19916;-54
2022/08/27 00:08:50;;;;;;;;;;;26.60;96.20;;;;;;5103856;28;19904;-54
2022/08/27 00:11:17;;;;;;;;;;;26.60;96.20;;;;;;5103908;28;19995;-56
2022/08/27 00:13:44;;;;;;;;;;;26.60;96.20;;;;;;5103953;28;19966;-56
2022/08/27 00:16:11;;;;;;;;;;;26.60;96.20;;;;;;5104542;28;19929;-53
2022/08/27 00:18:38;;;;;;;;;;;26.70;96.30;;;;;;5103743;28;19913;-59
2022/08/27 00:21:05;;;;;;;;;;;26.70;96.30;;;;;;5104373;28;20184;-53
2022/08/27 00:23:31;;;;;;;;;;;26.70;96.20;;;;;;5104031;28;20193;-55
2022/08/27 00:25:59;;;;;;;;;;;26.70;96.30;;;;;;5104175;28;20249;-53
2022/08/27 00:28:26;;;;;;;;;;;26.70;96.60;;;;;;5103832;28;19912;-54
2022/08/27 00:30:54;;;;;;;;;;;26.60;96.40;;;;;;5104217;28;19949;-58
2022/08/27 00:33:22;;;;;;;;;;;26.60;96.30;;;;;;5103673;28;19909;-55
2022/08/27 00:35:49;;;;;;;;;;;26.60;96.30;;;;;;5104206;28;19912;-57
2022/08/27 00:38:16;;;;;;;;;;;26.60;96.40;;;;;;5103507;28;19908;-53
2022/08/27 00:40:43;;;;;;;;;;;26.60;96.40;;;;;;5105329;28;19914;-54
2022/08/27 00:43:09;;;;;;;;;;;26.60;96.30;;;;;;5088893;28;20108;-57
2022/08/27 00:45:44;;;;;;;;;;;26.60;96.30;;;;;;5107906;28;20086;-53
2022/08/27 00:48:13;;;;;;;;;;;26.70;96.30;;;;;;5107182;28;19943;-53
2022/08/27 00:50:41;;;;;;;;;;;26.60;96.30;;;;;;5107664;28;19958;-53
2022/08/27 00:53:12;;;;;;;;;;;26.60;96.40;;;;;;5107192;28;19944;-53
2022/08/27 00:55:48;;;;;;;;;;;26.60;96.40;;;;;;5107506;28;19904;-54
2022/08/27 00:58:17;;;;;;;;;;;26.60;96.50;;;;;;5107219;28;19952;-56
2022/08/27 01:00:45;;;;;;;;;;;26.60;96.60;;;;;;5107335;28;19953;-55
2022/08/27 01:03:11;;;;;;;;;;;26.60;96.60;;;;;;5107057;28;19919;-55
2022/08/27 01:05:38;;;;;;;;;;;26.60;96.50;;;;;;5107340;28;19911;-55
2022/08/27 01:08:09;;;;;;;;;;;26.60;96.50;;;;;;5106990;28;19912;-55
2022/08/27 01:10:36;;;;;;;;;;;26.60;96.60;;;;;;5107236;28;19990;-54
2022/08/27 01:13:02;;;;;;;;;;;26.60;96.50;;;;;;5106348;28;19970;-54
2022/08/27 01:15:29;;;;;;;;;;;26.60;96.50;;;;;;5106593;28;19914;-53
2022/08/27 01:17:56;;;;;;;;;;;26.60;96.50;;;;;;5106759;28;19978;-53
2022/08/27 01:20:25;;;;;;;;;;;26.60;96.40;;;;;;5107140;28;20108;-54
2022/08/27 01:22:54;;;;;;;;;;;26.60;96.50;;;;;;5106591;28;19951;-52
2022/08/27 01:25:22;;;;;;;;;;;26.60;96.40;;;;;;5107041;28;19908;-57
2022/08/27 01:27:49;;;;;;;;;;;26.60;96.40;;;;;;5106695;28;20200;-53
2022/08/27 01:30:18;;;;;;;;;;;26.60;96.40;;;;;;5106817;28;19908;-54
2022/08/27 01:32:45;;;;;;;;;;;26.60;96.40;;;;;;5106696;28;19908;-53
2022/08/27 01:35:12;;;;;;;;;;;26.60;96.40;;;;;;5106800;28;19979;-53
2022/08/27 01:37:38;;;;;;;;;;;26.60;96.40;;;;;;5106419;28;20238;-54
2022/08/27 01:40:05;;;;;;;;;;;26.60;96.40;;;;;;5106749;28;19931;-57
2022/08/27 01:42:33;;;;;;;;;;;26.60;96.40;;;;;;5106422;28;19970;-53
2022/08/27 01:45:02;;;;;;;;;;;26.50;96.40;;;;;;5106521;28;19908;-55
2022/08/27 01:47:28;;;;;;;;;;;26.60;96.40;;;;;;5106258;28;19916;-57
2022/08/27 01:49:55;;;;;;;;;;;26.50;96.30;;;;;;5106400;28;19970;-57
2022/08/27 01:52:22;;;;;;;;;;;26.50;96.20;;;;;;5105235;28;19912;-57
2022/08/27 01:54:50;;;;;;;;;;;26.50;96.20;;;;;;5106118;28;19915;-62
2022/08/27 01:57:17;;;;;;;;;;;26.50;96.20;;;;;;5106350;28;19908;-55
2022/08/27 01:59:43;;;;;;;;;;;26.50;96.20;;;;;;5105955;28;19908;-52
2022/08/27 02:02:11;;;;;;;;;;;26.50;96.20;;;;;;5105937;28;19908;-56
2022/08/27 02:04:37;;;;;;;;;;;26.50;96.20;;;;;;5106023;28;19954;-54
2022/08/27 02:07:03;;;;;;;;;;;26.50;96.30;;;;;;5105584;28;20025;-55
2022/08/27 02:09:30;;;;;;;;;;;26.50;96.30;;;;;;5105968;28;20183;-58
2022/08/27 02:11:57;;;;;;;;;;;26.50;96.20;;;;;;5105695;28;19912;-56
2022/08/27 02:14:23;;;;;;;;;;;26.50;96.20;;;;;;5105466;28;19930;-56
2022/08/27 02:16:49;;;;;;;;;;;26.50;96.30;;;;;;5105524;28;19912;-56
2022/08/27 02:19:17;;;;;;;;;;;26.50;96.30;;;;;;5105562;28;19904;-56
2022/08/27 02:21:43;;;;;;;;;;;26.50;96.30;;;;;;5105348;28;20100;-55
2022/08/27 02:24:09;;;;;;;;;;;26.50;96.40;;;;;;5105651;28;19904;-54
2022/08/27 02:26:36;;;;;;;;;;;26.50;96.40;;;;;;5086893;28;19966;-55
2022/08/27 02:29:02;;;;;;;;;;;26.50;96.40;;;;;;5105262;28;19922;-54
2022/08/27 02:31:29;;;;;;;;;;;26.50;96.30;;;;;;5105331;28;19977;-54
2022/08/27 02:33:55;;;;;;;;;;;26.50;96.30;;;;;;5105227;28;19909;-56
2022/08/27 02:36:21;;;;;;;;;;;26.50;96.30;;;;;;5105135;28;19912;-54
2022/08/27 02:38:47;;;;;;;;;;;26.40;96.40;;;;;;5105018;28;19962;-52
2022/08/27 02:41:15;;;;;;;;;;;26.50;96.40;;;;;;5105092;28;20223;-55
2022/08/27 02:43:42;;;;;;;;;;;26.50;96.40;;;;;;5105155;28;20108;-54
2022/08/27 02:46:10;;;;;;;;;;;26.50;96.40;;;;;;5105526;28;19915;-55
2022/08/27 02:48:37;;;;;;;;;;;26.50;96.40;;;;;;5105084;28;19912;-54
2022/08/27 02:51:04;;;;;;;;;;;26.50;96.50;;;;;;5105534;28;19908;-56
2022/08/27 02:53:32;;;;;;;;;;;26.50;96.50;;;;;;5105022;28;19915;-54
2022/08/27 02:55:58;;;;;;;;;;;26.50;96.50;;;;;;5105531;28;20188;-53
2022/08/27 02:58:24;;;;;;;;;;;26.50;96.50;;;;;;5105045;28;19908;-53
2022/08/27 03:00:51;;;;;;;;;;;26.50;96.50;;;;;;5105075;28;20092;-60
2022/08/27 03:03:17;;;;;;;;;;;26.40;96.50;;;;;;5104599;28;19919;-55
2022/08/27 03:05:44;;;;;;;;;;;26.40;96.50;;;;;;5105200;28;20101;-55
2022/08/27 03:08:10;;;;;;;;;;;26.50;96.60;;;;;;5104532;28;19919;-55
2022/08/27 03:10:37;;;;;;;;;;;26.40;96.60;;;;;;5105143;28;19911;-55
2022/08/27 03:13:03;;;;;;;;;;;26.50;96.60;;;;;;5104537;28;19927;-54
2022/08/27 03:15:29;;;;;;;;;;;26.40;96.60;;;;;;5104763;28;19908;-56
2022/08/27 03:20:40;;;;;;;;;;;26.40;96.70;;;;;;5104826;28;19976;-58
2022/08/27 03:23:09;;;;;;;;;;;26.40;96.70;;;;;;5104359;28;19923;-53
2022/08/27 03:25:36;;;;;;;;;;;26.40;96.70;;;;;;5104848;28;19908;-55
2022/08/27 03:28:02;;;;;;;;;;;26.40;96.70;;;;;;5104314;28;19919;-55
2022/08/27 03:30:28;;;;;;;;;;;26.40;97.00;;;;;;5104943;28;20088;-54
2022/08/27 03:32:54;;;;;;;;;;;26.40;96.80;;;;;;5104471;28;19913;-56
2022/08/27 03:35:21;;;;;;;;;;;26.40;96.90;;;;;;5104709;28;19908;-55
2022/08/27 03:37:47;;;;;;;;;;;26.40;96.90;;;;;;5104465;28;19920;-56
2022/08/27 03:40:15;;;;;;;;;;;26.40;96.90;;;;;;5104665;28;19904;-56
2022/08/27 03:42:42;;;;;;;;;;;26.40;96.90;;;;;;5104336;28;19944;-55
2022/08/27 03:45:08;;;;;;;;;;;26.40;96.90;;;;;;5104569;28;19916;-57
2022/08/27 03:47:37;;;;;;;;;;;26.40;96.90;;;;;;5104374;28;19916;-57
2022/08/27 03:50:05;;;;;;;;;;;26.40;96.90;;;;;;5097710;28;19913;-53
2022/08/27 03:52:32;;;;;;;;;;;26.40;96.90;;;;;;5095582;28;19912;-60
2022/08/27 03:54:58;;;;;;;;;;;26.40;96.90;;;;;;5088719;28;20238;-59
2022/08/27 03:57:25;;;;;;;;;;;26.40;97.00;;;;;;5104143;28;19912;-60
2022/08/27 03:59:51;;;;;;;;;;;26.40;97.00;;;;;;5103166;28;19915;-61
2022/08/27 04:02:18;;;;;;;;;;;26.40;97.00;;;;;;5098268;28;19913;-60
2022/08/27 04:04:44;;;;;;;;;;;26.40;97.00;;;;;;5103172;28;19908;-62
2022/08/27 04:07:10;;;;;;;;;;;26.40;97.00;;;;;;5104020;28;19919;-56
2022/08/27 04:09:36;;;;;;;;;;;26.40;97.00;;;;;;5104231;28;20184;-56
2022/08/27 04:12:02;;;;;;;;;;;26.40;97.00;;;;;;5104010;28;20045;-58
2022/08/27 04:14:29;;;;;;;;;;;26.40;97.00;;;;;;5103943;28;19983;-55
2022/08/27 04:16:55;;;;;;;;;;;26.40;96.90;;;;;;5097007;28;20047;-56
2022/08/27 04:19:21;;;;;;;;;;;26.40;96.90;;;;;;5096703;28;19916;-56
2022/08/27 04:21:47;;;;;;;;;;;26.40;96.90;;;;;;5087475;28;19913;-60
2022/08/27 04:24:14;;;;;;;;;;;26.30;96.80;;;;;;5090331;28;20226;-57
2022/08/27 04:26:41;;;;;;;;;;;26.30;96.90;;;;;;5099140;28;19924;-62
2022/08/27 04:29:07;;;;;;;;;;;26.30;96.90;;;;;;5099333;28;19920;-59
2022/08/27 04:31:34;;;;;;;;;;;26.30;96.90;;;;;;5087652;28;19909;-57
2022/08/27 04:34:00;;;;;;;;;;;26.30;96.90;;;;;;5088001;28;19908;-59
2022/08/27 04:36:26;;;;;;;;;;;26.30;96.90;;;;;;5107267;28;20260;-57
2022/08/27 04:38:52;;;;;;;;;;;26.30;96.90;;;;;;5106711;28;20189;-58
2022/08/27 04:41:18;;;;;;;;;;;26.30;96.90;;;;;;5097869;28;19913;-61
2022/08/27 04:43:45;;;;;;;;;;;26.30;96.90;;;;;;5107828;28;20099;-57
2022/08/27 04:46:11;;;;;;;;;;;26.30;96.90;;;;;;5108148;28;19953;-58
2022/08/27 04:48:37;;;;;;;;;;;26.30;96.90;;;;;;5107587;28;19909;-56
2022/08/27 04:51:04;;;;;;;;;;;26.30;96.90;;;;;;5099663;28;19915;-57
2022/08/27 04:53:30;;;;;;;;;;;26.30;96.90;;;;;;5087221;28;20081;-59
2022/08/27 04:55:56;;;;;;;;;;;26.30;97.00;;;;;;5087637;28;20196;-58
2022/08/27 04:58:23;;;;;;;;;;;26.30;97.00;;;;;;5087264;28;19912;-59
2022/08/27 05:00:51;;;;;;;;;;;26.30;97.00;;;;;;5090592;28;19908;-57
2022/08/27 05:03:18;;;;;;;;;;;26.20;96.90;;;;;;5107230;28;19912;-57
2022/08/27 05:05:46;;;;;;;;;;;26.30;97.00;;;;;;5107513;28;19936;-63
2022/08/27 05:08:12;;;;;;;;;;;26.30;97.00;;;;;;5107001;28;19949;-60
2022/08/27 05:10:42;;;;;;;;;;;26.30;97.00;;;;;;5099939;28;19907;-57
2022/08/27 05:13:08;;;;;;;;;;;26.30;97.00;;;;;;5068840;28;19920;-58
2022/08/27 05:15:35;;;;;;;;;;;26.20;97.00;;;;;;5099764;28;20126;-61
2022/08/27 05:18:02;;;;;;;;;;;26.20;97.00;;;;;;5106981;28;19915;-60
2022/08/27 05:20:28;;;;;;;;;;;26.20;97.00;;;;;;5107263;28;20184;-56
2022/08/27 05:22:55;;;;;;;;;;;26.30;97.00;;;;;;5106783;28;20204;-59
2022/08/27 05:25:21;;;;;;;;;;;26.30;97.00;;;;;;5107300;28;19949;-61
2022/08/27 05:27:49;;;;;;;;;;;26.30;97.00;;;;;;5105626;28;20112;-58
2022/08/27 05:30:15;;;;;;;;;;;26.30;97.00;;;;;;5106834;28;20015;-61
2022/08/27 05:32:41;;;;;;;;;;;26.30;97.10;;;;;;5100637;28;19912;-59
2022/08/27 05:35:08;;;;;;;;;;;26.20;97.10;;;;;;5106943;28;19920;-59
2022/08/27 05:37:35;;;;;;;;;;;26.20;97.10;;;;;;5106575;28;20112;-58
2022/08/27 05:40:01;;;;;;;;;;;26.20;97.10;;;;;;5105914;28;19953;-57
2022/08/27 05:42:31;;;;;;;;;;;26.20;97.10;;;;;;5106397;28;19911;-59
2022/08/27 05:44:57;;;;;;;;;;;26.20;97.10;;;;;;5105351;28;19916;-62
2022/08/27 05:47:24;;;;;;;;;;;26.20;97.20;;;;;;5106393;28;20082;-61
2022/08/27 05:49:54;;;;;;;;;;;26.20;97.10;;;;;;5106661;28;20131;-59
2022/08/27 05:52:20;;;;;;;;;;;26.20;97.10;;;;;;5106337;28;20247;-60
2022/08/27 05:54:46;;;;;;;;;;;26.20;97.10;;;;;;5106480;28;20017;-60
2022/08/27 05:57:13;;;;;;;;;;;26.20;97.20;;;;;;5106256;28;19922;-58
2022/08/27 06:02:23;;;;;;;;;;;26.20;97.20;;;;;;5106272;28;19914;-56
2022/08/27 06:04:50;;;;;;;;;;;26.20;97.20;;;;;;5106207;28;19939;-56
2022/08/27 06:07:18;;;;;;;;;;;26.20;97.20;;;;;;5106025;28;19947;-60
2022/08/27 06:09:44;;;;;;;;;;;26.20;97.30;;;;;;5106066;28;20088;-59
2022/08/27 06:12:10;;;;;;;;;;;26.20;97.20;;;;;;5106082;28;19968;-57
2022/08/27 06:14:37;;;;;;;;;;;26.20;97.30;;;;;;5105934;28;19997;-59
2022/08/27 06:17:03;;;;;;;;;;;26.20;97.20;;;;;;5105505;28;19946;-63
2022/08/27 06:19:29;;;;;;;;;;;26.20;97.20;;;;;;5088127;28;19909;-63
2022/08/27 06:21:57;;;;;;;;;;;26.20;97.20;;;;;;5086833;28;19956;-62
2022/08/27 06:24:23;;;;;;;;;;;26.20;97.20;;;;;;5105938;28;19970;-62
2022/08/27 06:26:50;;;;;;;;;;;26.20;97.20;;;;;;5105807;28;19916;-62
2022/08/27 06:29:16;;;;;;;;;;;26.20;97.30;;;;;;5105523;28;19912;-62
2022/08/27 06:31:42;;;;;;;;;;;26.10;97.30;;;;;;5092582;28;19989;-58
2022/08/27 06:34:09;;;;;;;;;;;26.10;97.30;;;;;;5085041;28;19915;-55
2022/08/27 06:36:36;;;;;;;;;;;26.20;97.30;;;;;;5084952;28;19979;-55
2022/08/27 06:39:03;;;;;;;;;;;26.20;97.30;;;;;;5084769;28;20188;-56
2022/08/27 06:41:29;;;;;;;;;;;26.20;97.30;;;;;;5091228;28;19926;-56
2022/08/27 06:43:56;;;;;;;;;;;26.20;97.30;;;;;;5103144;28;19975;-57
2022/08/27 06:46:24;;;;;;;;;;;26.20;97.30;;;;;;5104973;28;19916;-54
2022/08/27 06:48:50;;;;;;;;;;;26.20;97.30;;;;;;5104674;28;19908;-56
2022/08/27 06:51:18;;;;;;;;;;;26.20;97.30;;;;;;5097355;28;19947;-58
2022/08/27 06:53:46;;;;;;;;;;;26.10;97.30;;;;;;5105067;28;19912;-57
2022/08/27 06:56:12;;;;;;;;;;;26.20;97.40;;;;;;5105256;28;19908;-57
2022/08/27 06:58:39;;;;;;;;;;;26.20;97.30;;;;;;5104989;28;19950;-56
2022/08/27 07:01:15;;;;;;;;;;;26.20;97.30;;;;;;5104946;28;19908;-55
2022/08/27 07:03:42;;;;;;;;;;;26.20;97.30;;;;;;5105015;28;19951;-56
2022/08/27 07:06:09;;;;;;;;;;;26.20;97.40;;;;;;5105309;28;19915;-56
2022/08/27 07:08:36;;;;;;;;;;;26.20;97.40;;;;;;5105141;28;20200;-57
2022/08/27 07:11:02;;;;;;;;;;;26.20;97.30;;;;;;5105299;28;19908;-56
2022/08/27 07:13:28;;;;;;;;;;;26.20;97.30;;;;;;5104584;28;19920;-60
2022/08/27 07:15:55;;;;;;;;;;;26.20;97.20;;;;;;5105183;28;19950;-56
2022/08/27 07:18:21;;;;;;;;;;;26.20;97.40;;;;;;5104916;28;19927;-57
2022/08/27 07:20:48;;;;;;;;;;;26.20;97.20;;;;;;5104980;28;19904;-59
2022/08/27 07:23:14;;;;;;;;;;;26.10;97.10;;;;;;5104633;28;19912;-58
2022/08/27 07:25:41;;;;;;;;;;;26.20;97.10;;;;;;5105135;28;19914;-58
2022/08/27 07:28:07;;;;;;;;;;;26.20;97.10;;;;;;5104462;28;19916;-58
2022/08/27 07:30:33;;;;;;;;;;;26.20;97.10;;;;;;5104967;28;19908;-56
2022/08/27 07:32:59;;;;;;;;;;;26.20;97.10;;;;;;5104643;28;19914;-58
2022/08/27 07:35:25;;;;;;;;;;;26.10;97.00;;;;;;5104784;28;19916;-55
2022/08/27 07:37:51;;;;;;;;;;;26.10;97.00;;;;;;5104512;28;19916;-58
2022/08/27 07:40:18;;;;;;;;;;;26.10;97.00;;;;;;5104851;28;19908;-57
2022/08/27 07:45:29;;;;;;;;;;;26.10;97.00;;;;;;5104943;28;19949;-57
2022/08/27 07:47:55;;;;;;;;;;;26.10;97.00;;;;;;5104322;28;19924;-52
2022/08/27 07:50:22;;;;;;;;;;;26.10;97.10;;;;;;5105887;28;19916;-55
2022/08/27 07:52:51;;;;;;;;;;;26.10;97.00;;;;;;5108667;28;19915;-54
2022/08/27 07:55:17;;;;;;;;;;;26.10;97.00;;;;;;5108861;28;19931;-54
2022/08/27 07:57:44;;;;;;;;;;;26.10;96.90;;;;;;5108629;28;19916;-60
2022/08/27 08:00:11;;;;;;;;;;;26.10;96.90;;;;;;5108674;28;19970;-58
2022/08/27 08:02:37;;;;;;;;;;;26.10;96.90;;;;;;5108390;28;20038;-57
2022/08/27 08:05:05;;;;;;;;;;;26.10;96.90;;;;;;5108763;28;19970;-60
2022/08/27 08:07:32;;;;;;;;;;;26.10;96.90;;;;;;5107400;28;19985;-57
2022/08/27 08:09:58;;;;;;;;;;;26.10;96.90;;;;;;5108395;28;19915;-56
2022/08/27 08:12:25;;;;;;;;;;;26.10;96.90;;;;;;5108088;28;19908;-61
2022/08/27 08:14:56;;;;;;;;;;;26.10;96.90;;;;;;5107658;28;19953;-58
2022/08/27 08:17:24;;;;;;;;;;;26.10;96.90;;;;;;5108071;28;20100;-57
2022/08/27 08:19:51;;;;;;;;;;;26.10;97.00;;;;;;5108250;28;19943;-58
2022/08/27 08:22:17;;;;;;;;;;;26.10;97.00;;;;;;5108019;28;19919;-58
2022/08/27 08:24:43;;;;;;;;;;;26.10;97.00;;;;;;5108307;28;19940;-62
2022/08/27 08:27:10;;;;;;;;;;;26.10;97.00;;;;;;5108448;28;20169;-56
2022/08/27 08:29:36;;;;;;;;;;;26.10;97.00;;;;;;5107969;28;19911;-58
2022/08/27 08:32:04;;;;;;;;;;;26.10;97.00;;;;;;5107853;28;19916;-58
2022/08/27 08:34:30;;;;;;;;;;;26.10;97.00;;;;;;5107677;28;19955;-58
2022/08/27 08:36:57;;;;;;;;;;;26.10;97.00;;;;;;5108063;28;19908;-58
2022/08/27 08:39:23;;;;;;;;;;;26.10;97.00;;;;;;5107823;28;19915;-58
2022/08/27 08:41:51;;;;;;;;;;;26.10;96.90;;;;;;5107636;28;19930;-57
2022/08/27 08:44:30;;;;;;;;;;;26.10;96.90;;;;;;5107810;28;20200;-59
2022/08/27 08:47:18;;;;;;;;;;;26.10;96.90;;;;;;5107367;28;19916;-58
2022/08/27 08:49:55;;;;;;;;;;;26.10;96.90;;;;;;5107682;28;20009;-58
2022/08/27 08:52:42;;;;;;;;;;;26.10;96.90;;;;;;5107330;28;19951;-59
2022/08/27 08:55:15;;;;;;;;;;;26.10;96.90;;;;;;5107700;28;19904;-58
2022/08/27 08:58:07;;;;;;;;;;;26.10;96.90;;;;;;5107474;28;19912;-58
2022/08/27 09:00:35;;;;;;;;;;;26.10;97.00;;;;;;5076285;28;19915;-54
2022/08/27 09:03:01;;;;;;;;;;;26.10;97.00;;;;;;5107254;28;20025;-59
2022/08/27 09:05:29;;;;;;;;;;;26.10;97.10;;;;;;5107683;28;19904;-58
2022/08/27 09:08:05;;;;;;;;;;;26.10;97.00;;;;;;5107022;28;19916;-57
2022/08/27 09:10:32;;;;;;;;;;;26.10;97.00;;;;;;5107527;28;20123;-62
2022/08/27 09:13:00;;;;;;;;;;;26.10;97.00;;;;;;5106960;28;19979;-62
2022/08/27 09:15:28;;;;;;;;;;;26.10;97.10;;;;;;5107357;28;19975;-62
2022/08/27 09:18:07;;;;;;;;;;;26.10;97.10;;;;;;5106958;28;19954;-56
2022/08/27 09:20:35;;;;;;;;;;;26.10;97.10;;;;;;5107374;28;19971;-56
2022/08/27 09:23:07;;;;;;;;;;;26.10;97.10;;;;;;5106837;28;19920;-62
2022/08/27 09:25:36;;;;;;;;;;;26.10;97.00;;;;;;5107216;28;19908;-62
2022/08/27 09:29:14;;;;;;;;;;;26.10;97.00;;;;;;5106598;28;19916;-62
2022/08/27 09:30:54;;;;;;;;;;;26.00;97.00;;;;;;5107121;28;19904;-58
2022/08/27 09:33:21;;;;;;;;;;;26.00;97.00;;;;;;5106527;28;19916;-56
2022/08/27 09:35:47;;;;;;;;;;;26.00;97.00;;;;;;5107214;28;19908;-59
2022/08/27 09:38:27;;;;;;;;;;;26.00;97.00;;;;;;5106563;28;19912;-54
2022/08/27 09:40:55;;;;;;;;;;;26.00;97.10;;;;;;5106955;28;19915;-56
2022/08/27 09:43:23;;;;;;;;;;;26.00;97.00;;;;;;5106715;28;19912;-55
2022/08/27 09:45:51;;;;;;;;;;;26.00;97.00;;;;;;5106675;28;20189;-57
2022/08/27 09:48:18;;;;;;;;;;;26.00;97.00;;;;;;5106341;28;19984;-57
2022/08/27 09:50:46;;;;;;;;;;;26.00;97.00;;;;;;5106787;28;19954;-58
2022/08/27 09:53:17;;;;;;;;;;;26.00;96.90;;;;;;5106214;28;19912;-61
2022/08/27 09:55:46;;;;;;;;;;;26.00;96.90;;;;;;5106655;28;19950;-62
2022/08/27 09:58:20;;;;;;;;;;;26.00;96.90;;;;;;5097873;28;20157;-64
2022/08/27 10:00:47;;;;;;;;;;;26.00;96.90;;;;;;5106403;28;19915;-55
2022/08/27 10:03:13;;;;;;;;;;;26.00;96.90;;;;;;5106115;28;19912;-58
2022/08/27 10:05:53;;;;;;;;;;;26.00;96.90;;;;;;5106587;28;19912;-58
2022/08/27 10:08:37;;;;;;;;;;;26.00;96.90;;;;;;5106259;28;19947;-58
2022/08/27 10:11:09;;;;;;;;;;;26.00;96.90;;;;;;5106323;28;19923;-54
2022/08/27 10:13:45;;;;;;;;;;;26.00;96.90;;;;;;5105148;28;19920;-57
2022/08/27 10:16:35;;;;;;;;;;;26.00;96.90;;;;;;5105694;28;20010;-61
2022/08/27 10:19:10;;;;;;;;;;;26.00;96.90;;;;;;5103778;28;19992;-62
2022/08/27 10:21:43;;;;;;;;;;;26.00;96.90;;;;;;5100715;28;19916;-55
2022/08/27 10:24:29;;;;;;;;;;;26.00;96.90;;;;;;5102478;28;20167;-57
2022/08/27 10:27:01;;;;;;;;;;;26.00;97.00;;;;;;5102657;28;19952;-58
2022/08/27 10:29:46;;;;;;;;;;;26.00;97.00;;;;;;5105703;28;19909;-62
2022/08/27 10:32:50;;;;;;;;;;;26.00;97.00;;;;;;5105379;28;19916;-56
2022/08/27 10:35:17;;;;;;;;;;;25.90;97.00;;;;;;5023681;28;19910;-56
2022/08/27 10:38:12;;;;;;;;;;;25.90;97.00;;;;;;5023615;28;19921;-59
2022/08/27 10:40:53;;;;;;;;;;;25.90;97.00;;;;;;5062038;28;20077;-57
2022/08/27 10:43:48;;;;;;;;;;;25.90;97.00;;;;;;5105477;28;19912;-55
2022/08/27 10:46:29;;;;;;;;;;;25.90;97.00;;;;;;5033526;28;20225;-57
2022/08/27 10:49:14;;;;;;;;;;;26.00;97.00;;;;;;5104106;28;20131;-57
2022/08/27 10:51:47;;;;;;;;;;;25.90;97.00;;;;;;5100741;28;19958;-59
2022/08/27 10:54:26;;;;;;;;;;;25.90;97.00;;;;;;5101503;28;19914;-58
2022/08/27 10:56:58;;;;;;;;;;;25.90;97.00;;;;;;5102372;28;19919;-60
2022/08/27 10:59:32;;;;;;;;;;;25.90;97.00;;;;;;5105286;28;19980;-60
2022/08/27 11:02:18;;;;;;;;;;;25.90;97.00;;;;;;5105016;28;20193;-56
2022/08/27 11:04:48;;;;;;;;;;;25.90;97.00;;;;;;5091189;28;20096;-54
2022/08/27 11:07:21;;;;;;;;;;;25.90;97.10;;;;;;5104839;28;19957;-58
2022/08/27 11:09:53;;;;;;;;;;;25.90;97.10;;;;;;5104895;28;20203;-63
2022/08/27 11:12:31;;;;;;;;;;;26.00;97.20;;;;;;5104458;28;20196;-56
2022/08/27 11:14:59;;;;;;;;;;;26.00;97.20;;;;;;5104918;28;19912;-59
2022/08/27 11:17:29;;;;;;;;;;;25.90;97.20;;;;;;5104934;28;19920;-56
2022/08/27 11:20:09;;;;;;;;;;;25.90;97.20;;;;;;5104878;28;19937;-59
2022/08/27 11:22:48;;;;;;;;;;;25.90;97.20;;;;;;5104632;28;19912;-57
2022/08/27 11:25:20;;;;;;;;;;;25.90;97.20;;;;;;5104926;28;19922;-56
2022/08/27 11:27:48;;;;;;;;;;;25.90;97.10;;;;;;5104480;28;19922;-54
2022/08/27 11:30:38;;;;;;;;;;;25.90;97.20;;;;;;5104871;28;19973;-54
2022/08/27 11:33:13;;;;;;;;;;;25.90;97.20;;;;;;5093179;28;19979;-55
2022/08/27 11:35:48;;;;;;;;;;;25.90;97.20;;;;;;5105025;28;19908;-55
2022/08/27 11:38:14;;;;;;;;;;;25.90;97.20;;;;;;5104507;28;19975;-56
2022/08/27 11:40:54;;;;;;;;;;;25.90;97.20;;;;;;5104060;28;20273;-57
2022/08/27 11:43:23;;;;;;;;;;;25.90;97.20;;;;;;5104623;28;20096;-53
2022/08/27 11:46:04;;;;;;;;;;;25.90;97.20;;;;;;5104724;28;19909;-57
2022/08/27 11:48:32;;;;;;;;;;;25.90;97.20;;;;;;5104261;28;19916;-59
2022/08/27 11:51:00;;;;;;;;;;;25.90;97.20;;;;;;5104705;28;19948;-54
2022/08/27 11:53:28;;;;;;;;;;;25.90;97.20;;;;;;5103933;28;19946;-59
2022/08/27 11:55:55;;;;;;;;;;;26.00;97.20;;;;;;5104603;28;19929;-55
2022/08/27 11:58:22;;;;;;;;;;;25.90;97.10;;;;;;5104167;28;19919;-56
2022/08/27 12:00:48;;;;;;;;;;;25.90;97.10;;;;;;5104331;28;19915;-59
2022/08/27 12:03:31;;;;;;;;;;;25.90;97.10;;;;;;5104189;28;19912;-57
2022/08/27 12:05:57;;;;;;;;;;;25.90;97.00;;;;;;5104442;28;19908;-54
2022/08/27 12:08:24;;;;;;;;;;;25.90;96.90;;;;;;5104147;28;19912;-54
2022/08/27 12:11:05;;;;;;;;;;;25.90;96.80;;;;;;5104302;28;19915;-54
2022/08/27 12:13:51;;;;;;;;;;;26.00;96.90;;;;;;5104068;28;19928;-57
2022/08/27 12:16:17;;;;;;;;;;;26.00;96.80;;;;;;5103737;28;19912;-55
2022/08/27 12:19:02;;;;;;;;;;;26.00;96.80;;;;;;5104028;28;19908;-54
2022/08/27 12:21:28;;;;;;;;;;;26.00;96.80;;;;;;5103793;28;19912;-53
2022/08/27 12:24:08;;;;;;;;;;;26.00;96.80;;;;;;5103845;28;19915;-60
2022/08/27 12:26:36;;;;;;;;;;;26.00;97.00;;;;;;5104120;28;19961;-57
2022/08/27 12:29:17;;;;;;;;;;;26.00;96.80;;;;;;5101938;28;19944;-57
2022/08/27 12:31:47;;;;;;;;;;;26.00;96.80;;;;;;5099989;28;19918;-57
2022/08/27 12:34:17;;;;;;;;;;;26.00;96.80;;;;;;5103607;28;19993;-55
2022/08/27 12:36:45;;;;;;;;;;;26.00;96.80;;;;;;5105623;28;20113;-56
2022/08/27 12:39:16;;;;;;;;;;;26.00;96.80;;;;;;5107745;28;19975;-55
2022/08/27 12:41:46;;;;;;;;;;;26.00;96.80;;;;;;5107599;28;20200;-55
2022/08/27 12:44:29;;;;;;;;;;;26.00;96.80;;;;;;5107678;28;20099;-54
2022/08/27 12:47:04;;;;;;;;;;;26.10;96.80;;;;;;5107370;28;19916;-57
2022/08/27 12:49:32;;;;;;;;;;;26.10;96.90;;;;;;5107592;28;19915;-54
2022/08/27 12:51:59;;;;;;;;;;;26.10;97.00;;;;;;5107550;28;19935;-56
2022/08/27 12:54:31;;;;;;;;;;;26.10;96.90;;;;;;5107403;28;19949;-58
2022/08/27 12:57:07;;;;;;;;;;;26.10;96.80;;;;;;5107347;28;19908;-54
2022/08/27 12:59:36;;;;;;;;;;;26.20;96.80;;;;;;5107249;28;20070;-56
2022/08/27 13:02:11;;;;;;;;;;;26.20;96.70;;;;;;5107180;28;19926;-54
2022/08/27 13:04:38;;;;;;;;;;;26.30;96.70;;;;;;5106342;28;19916;-53
2022/08/27 13:07:06;;;;;;;;;;;26.30;96.60;;;;;;5107067;28;19912;-55
2022/08/27 13:09:36;;;;;;;;;;;26.40;96.60;;;;;;5107304;28;20185;-59
2022/08/27 13:12:06;;;;;;;;;;;26.40;96.50;;;;;;5107284;28;19908;-55
2022/08/27 13:14:36;;;;;;;;;;;26.40;96.50;;;;;;5107144;28;19924;-54
2022/08/27 13:17:17;;;;;;;;;;;26.40;96.40;;;;;;5105945;28;20884;-56
2022/08/27 13:19:49;;;;;;;;;;;26.40;96.40;;;;;;5107025;28;19908;-55
2022/08/27 13:22:45;;;;;;;;;;;26.40;96.30;;;;;;5106806;28;19912;-55
2022/08/27 13:25:38;;;;;;;;;;;26.40;96.20;;;;;;5090409;28;19939;-54
2022/08/27 13:28:14;;;;;;;;;;;26.50;96.30;;;;;;5098956;28;19958;-55
2022/08/27 13:30:44;;;;;;;;;;;26.50;96.30;;;;;;5107272;28;19954;-58
2022/08/27 13:33:17;;;;;;;;;;;26.50;96.30;;;;;;5106525;28;20200;-55
2022/08/27 13:35:44;;;;;;;;;;;26.50;96.20;;;;;;5107096;28;19908;-57
2022/08/27 13:38:10;;;;;;;;;;;26.50;96.30;;;;;;5106771;28;19912;-54
2022/08/27 13:40:49;;;;;;;;;;;26.50;96.30;;;;;;5106732;28;20192;-59
2022/08/27 13:43:15;;;;;;;;;;;26.50;96.20;;;;;;5106548;28;19946;-54
2022/08/27 13:45:41;;;;;;;;;;;26.50;96.30;;;;;;5106990;28;20173;-55
2022/08/27 13:48:10;;;;;;;;;;;26.50;96.20;;;;;;5105163;28;20108;-55
2022/08/27 13:50:36;;;;;;;;;;;26.60;96.20;;;;;;5106823;28;19908;-55
2022/08/27 13:55:54;;;;;;;;;;;26.60;96.20;;;;;;5106828;28;20009;-54
2022/08/27 13:58:29;;;;;;;;;;;26.60;96.30;;;;;;5106122;28;19913;-54
2022/08/27 14:01:05;;;;;;;;;;;26.60;96.30;;;;;;5106456;28;19914;-60
2022/08/27 14:03:33;;;;;;;;;;;26.60;96.20;;;;;;5106124;28;19920;-60
2022/08/27 14:06:02;;;;;;;;;;;26.60;96.40;;;;;;5106341;28;19908;-53
2022/08/27 14:08:31;;;;;;;;;;;26.60;96.30;;;;;;5106050;28;19973;-56
2022/08/27 14:10:59;;;;;;;;;;;26.70;96.20;;;;;;5106228;28;20115;-58
2022/08/27 14:13:27;;;;;;;;;;;26.70;96.40;;;;;;5105577;28;19995;-58
2022/08/27 14:15:55;;;;;;;;;;;26.70;96.20;;;;;;5105325;28;19908;-56
2022/08/27 14:18:23;;;;;;;;;;;26.70;96.10;;;;;;5105919;28;19912;-56
2022/08/27 14:20:50;;;;;;;;;;;26.70;96.00;;;;;;5106182;28;19943;-56
2022/08/27 14:23:19;;;;;;;;;;;26.80;96.00;;;;;;5104924;28;20211;-54
2022/08/27 14:25:45;;;;;;;;;;;26.80;96.10;;;;;;5106271;28;19908;-55
2022/08/27 14:28:12;;;;;;;;;;;26.80;96.00;;;;;;5105528;28;20025;-56
2022/08/27 14:30:38;;;;;;;;;;;26.90;95.90;;;;;;5106033;28;19908;-57
2022/08/27 14:33:04;;;;;;;;;;;26.90;95.90;;;;;;5105503;28;19968;-54
2022/08/27 14:35:32;;;;;;;;;;;26.90;95.80;;;;;;5104796;28;20111;-53
2022/08/27 14:38:00;;;;;;;;;;;26.90;95.70;;;;;;5105508;28;19919;-53
2022/08/27 14:40:26;;;;;;;;;;;26.90;95.80;;;;;;5105785;28;19979;-55